createdAt,value
2019-03-17T00:00:40.983Z,2.00
2019-03-17T00:01:40.951Z,1.70
2019-03-17T00:02:40.958Z,1.90
2019-03-17T00:03:40.928Z,1.80
2019-03-17T00:04:40.914Z,1.90
2019-03-17T00:05:40.903Z,1.70
2019-03-17T00:06:40.910Z,1.90
2019-03-17T00:07:40.884Z,1.50
2019-03-17T00:08:40.869Z,1.80
2019-03-17T00:09:40.858Z,1.70
2019-03-17T00:10:40.869Z,1.80
2019-03-17T00:11:40.835Z,1.80
2019-03-17T00:12:40.833Z,1.80
2019-03-17T00:13:40.840Z,1.90
2019-03-17T00:14:40.803Z,1.60
2019-03-17T00:15:40.790Z,1.70
2019-03-17T00:16:40.780Z,1.90
2019-03-17T00:17:42.001Z,1.90
2019-03-17T00:18:40.758Z,1.70
2019-03-17T00:19:40.744Z,1.80
2019-03-17T00:20:40.734Z,1.80
2019-03-17T00:21:40.758Z,1.70
2019-03-17T00:22:40.712Z,1.60
2019-03-17T00:23:40.704Z,1.60
2019-03-17T00:24:40.689Z,1.80
2019-03-17T00:25:40.681Z,1.90
2019-03-17T00:26:40.697Z,1.60
2019-03-17T00:27:40.658Z,1.90
2019-03-17T00:28:40.644Z,1.90
2019-03-17T00:29:40.634Z,1.50
2019-03-17T00:30:40.686Z,1.80
2019-03-17T00:31:40.612Z,1.80
2019-03-17T00:32:40.601Z,1.60
2019-03-17T00:33:40.588Z,1.70
2019-03-17T00:34:44.285Z,1.50
2019-03-17T00:35:40.592Z,1.60
2019-03-17T00:36:40.576Z,1.60
2019-03-17T00:37:40.542Z,1.60
2019-03-17T00:38:40.531Z,1.80
2019-03-17T00:39:40.520Z,1.50
2019-03-17T00:40:40.509Z,1.50
2019-03-17T00:41:40.523Z,1.60
2019-03-17T00:42:40.500Z,1.60
2019-03-17T00:43:40.481Z,1.70
2019-03-17T00:44:40.464Z,1.70
2019-03-17T00:45:40.454Z,1.40
2019-03-17T00:46:40.458Z,1.60
2019-03-17T00:47:40.430Z,1.40
2019-03-17T00:48:40.446Z,1.70
2019-03-17T00:49:40.429Z,1.60
2019-03-17T00:50:40.402Z,1.50
2019-03-17T00:51:40.386Z,1.40
2019-03-17T00:52:40.376Z,1.70
2019-03-17T00:53:40.390Z,1.60
2019-03-17T00:54:40.367Z,1.60
2019-03-17T00:55:40.339Z,1.50
2019-03-17T00:56:40.345Z,1.50
2019-03-17T00:57:40.339Z,1.80
2019-03-17T00:58:40.309Z,1.70
2019-03-17T00:59:40.295Z,1.70
2019-03-17T01:00:40.309Z,2.00
2019-03-17T01:01:40.278Z,1.80
2019-03-17T01:02:40.264Z,1.60
2019-03-17T01:03:40.254Z,1.60
2019-03-17T01:04:40.258Z,1.50
2019-03-17T01:05:40.262Z,1.50
2019-03-17T01:06:40.218Z,1.70
2019-03-17T01:07:40.203Z,1.70
2019-03-17T01:08:40.216Z,1.70
2019-03-17T01:09:40.181Z,1.60
2019-03-17T01:10:40.169Z,1.50
2019-03-17T01:11:40.160Z,1.50
2019-03-17T01:12:40.169Z,1.50
2019-03-17T01:13:40.136Z,1.60
2019-03-17T01:14:40.126Z,1.50
2019-03-17T01:15:40.145Z,1.40
2019-03-17T01:16:40.102Z,1.50
2019-03-17T01:17:40.091Z,1.40
2019-03-17T01:18:40.081Z,1.60
2019-03-17T01:19:40.101Z,1.70
2019-03-17T01:20:40.061Z,1.60
2019-03-17T01:21:40.047Z,1.50
2019-03-17T01:22:40.033Z,1.60
2019-03-17T01:23:40.024Z,1.90
2019-03-17T01:24:40.040Z,1.50
2019-03-17T01:25:40.001Z,1.60
2019-03-17T01:26:39.990Z,1.40
2019-03-17T01:27:39.978Z,1.50
2019-03-17T01:28:39.969Z,1.40
2019-03-17T01:29:40.030Z,1.50
2019-03-17T01:30:39.944Z,1.50
2019-03-17T01:31:39.951Z,1.60
2019-03-17T01:32:39.942Z,1.40
2019-03-17T01:33:39.933Z,1.50
2019-03-17T01:34:39.918Z,1.50
2019-03-17T01:35:39.891Z,1.50
2019-03-17T01:36:39.904Z,1.50
2019-03-17T01:37:39.883Z,1.50
2019-03-17T01:38:39.855Z,1.50
2019-03-17T01:39:39.842Z,1.30
2019-03-17T01:40:39.862Z,1.60
2019-03-17T01:41:39.818Z,1.50
2019-03-17T01:42:39.812Z,1.30
2019-03-17T01:43:39.799Z,1.30
2019-03-17T01:44:39.787Z,1.60
2019-03-17T01:45:39.795Z,1.40
2019-03-17T01:46:39.807Z,1.50
2019-03-17T01:47:39.753Z,1.60
2019-03-17T01:48:39.741Z,1.60
2019-03-17T01:49:39.729Z,1.50
2019-03-17T01:50:39.719Z,1.50
2019-03-17T01:51:39.729Z,1.40
2019-03-17T01:52:39.697Z,1.80
2019-03-17T01:53:39.685Z,1.60
2019-03-17T01:54:39.672Z,1.70
2019-03-17T01:55:39.666Z,1.50
2019-03-17T01:56:39.672Z,1.40
2019-03-17T01:57:39.667Z,1.70
2019-03-17T01:58:39.651Z,1.50
2019-03-17T01:59:39.641Z,1.70
2019-03-17T02:00:39.618Z,1.40
2019-03-17T02:01:39.604Z,1.40
2019-03-17T02:02:39.633Z,1.60
2019-03-17T02:03:39.571Z,1.50
2019-03-17T02:04:39.562Z,1.30
2019-03-17T02:05:39.548Z,1.50
2019-03-17T02:06:39.540Z,1.50
2019-03-17T02:07:39.578Z,1.20
2019-03-17T02:08:39.515Z,1.40
2019-03-17T02:09:39.503Z,1.50
2019-03-17T02:10:39.516Z,1.40
2019-03-17T02:11:39.508Z,1.50
2019-03-17T02:12:39.501Z,1.60
2019-03-17T02:13:39.467Z,1.40
2019-03-17T02:14:39.449Z,1.50
2019-03-17T02:15:39.437Z,1.50
2019-03-17T02:16:39.427Z,1.20
2019-03-17T02:17:39.465Z,1.40
2019-03-17T02:18:39.407Z,1.50
2019-03-17T02:19:54.012Z,1.20
2019-03-17T02:20:39.376Z,1.40
2019-03-17T02:21:39.369Z,1.80
2019-03-17T02:22:39.373Z,1.50
2019-03-17T02:23:39.359Z,1.30
2019-03-17T02:24:39.337Z,1.40
2019-03-17T02:25:39.347Z,1.50
2019-03-17T02:26:39.309Z,1.40
2019-03-17T02:27:39.298Z,1.40
2019-03-17T02:28:39.288Z,1.60
2019-03-17T02:29:39.347Z,1.50
2019-03-17T02:30:39.263Z,1.40
2019-03-17T02:31:39.254Z,1.50
2019-03-17T02:32:39.266Z,1.40
2019-03-17T02:33:39.232Z,1.30
2019-03-17T02:34:39.235Z,1.70
2019-03-17T02:35:40.116Z,1.50
2019-03-17T02:36:39.241Z,1.60
2019-03-17T02:37:39.191Z,1.60
2019-03-17T02:38:39.188Z,1.40
2019-03-17T02:39:39.164Z,1.20
2019-03-17T02:40:39.153Z,1.30
2019-03-17T02:41:39.171Z,1.60
2019-03-17T02:42:39.139Z,1.40
2019-03-17T02:43:39.145Z,1.40
2019-03-17T02:44:39.109Z,1.40
2019-03-17T02:45:39.097Z,1.30
2019-03-17T02:46:39.083Z,1.60
2019-03-17T02:47:39.108Z,1.50
2019-03-17T02:48:39.063Z,1.40
2019-03-17T02:49:39.053Z,1.40
2019-03-17T02:50:39.038Z,1.40
2019-03-17T02:51:39.034Z,1.50
2019-03-17T02:52:39.044Z,1.50
2019-03-17T02:53:39.063Z,1.30
2019-03-17T02:54:38.992Z,1.80
2019-03-17T02:55:38.981Z,1.50
2019-03-17T02:56:38.989Z,1.70
2019-03-17T02:57:38.961Z,1.50
2019-03-17T02:58:38.947Z,1.60
2019-03-17T02:59:38.936Z,1.50
2019-03-17T03:00:38.923Z,1.50
2019-03-17T03:01:38.936Z,1.50
2019-03-17T03:02:38.909Z,1.60
2019-03-17T03:03:38.921Z,1.50
2019-03-17T03:04:38.879Z,1.50
2019-03-17T03:05:54.050Z,1.50
2019-03-17T03:06:39.856Z,1.40
2019-03-17T03:07:38.847Z,1.50
2019-03-17T03:08:38.835Z,2.00
2019-03-17T03:09:38.825Z,2.00
2019-03-17T03:10:38.891Z,1.50
2019-03-17T03:11:38.801Z,1.50
2019-03-17T03:12:38.793Z,1.50
2019-03-17T03:13:38.781Z,1.60
2019-03-17T03:14:38.767Z,1.40
2019-03-17T03:15:38.777Z,1.60
2019-03-17T03:16:38.745Z,1.70
2019-03-17T03:17:38.758Z,1.40
2019-03-17T03:18:38.720Z,1.70
2019-03-17T03:19:38.731Z,1.80
2019-03-17T03:20:38.700Z,1.60
2019-03-17T03:21:38.697Z,1.50
2019-03-17T03:22:38.701Z,1.60
2019-03-17T03:23:38.666Z,1.50
2019-03-17T03:24:38.653Z,1.50
2019-03-17T03:25:38.665Z,1.80
2019-03-17T03:26:38.632Z,1.50
2019-03-17T03:27:38.697Z,1.80
2019-03-17T03:28:38.609Z,1.40
2019-03-17T03:29:38.603Z,1.80
2019-03-17T03:30:38.590Z,1.50
2019-03-17T03:31:38.621Z,1.60
2019-03-17T03:32:38.566Z,1.40
2019-03-17T03:33:38.560Z,1.40
2019-03-17T03:34:38.545Z,1.40
2019-03-17T03:35:38.569Z,1.80
2019-03-17T03:36:38.518Z,1.70
2019-03-17T03:37:38.511Z,1.70
2019-03-17T03:38:38.529Z,1.60
2019-03-17T03:39:38.489Z,1.70
2019-03-17T03:40:38.471Z,1.50
2019-03-17T03:41:38.472Z,1.40
2019-03-17T03:42:38.451Z,1.70
2019-03-17T03:43:38.461Z,1.50
2019-03-17T03:44:38.428Z,1.70
2019-03-17T03:45:38.431Z,1.70
2019-03-17T03:46:38.409Z,1.50
2019-03-17T03:47:38.397Z,1.60
2019-03-17T03:48:38.413Z,1.50
2019-03-17T03:49:38.374Z,1.30
2019-03-17T03:50:38.358Z,1.50
2019-03-17T03:51:38.347Z,1.40
2019-03-17T03:52:38.340Z,1.40
2019-03-17T03:53:38.354Z,1.80
2019-03-17T03:54:38.314Z,1.50
2019-03-17T03:55:41.915Z,1.70
2019-03-17T03:56:38.292Z,1.70
2019-03-17T03:57:38.284Z,1.50
2019-03-17T03:58:38.291Z,1.60
2019-03-17T03:59:38.257Z,1.60
2019-03-17T04:00:38.269Z,1.40
2019-03-17T04:01:38.234Z,1.70
2019-03-17T04:02:38.231Z,1.50
2019-03-17T04:03:38.234Z,1.50
2019-03-17T04:04:38.204Z,1.60
2019-03-17T04:05:38.204Z,1.50
2019-03-17T04:06:38.205Z,1.50
2019-03-17T04:07:38.166Z,1.40
2019-03-17T04:08:38.179Z,1.70
2019-03-17T04:09:38.149Z,1.50
2019-03-17T04:10:38.135Z,1.60
2019-03-17T04:11:38.138Z,1.70
2019-03-17T04:12:38.110Z,1.60
2019-03-17T04:13:38.136Z,1.60
2019-03-17T04:14:38.097Z,1.70
2019-03-17T04:15:38.079Z,1.80
2019-03-17T04:16:38.064Z,1.70
2019-03-17T04:17:38.052Z,1.80
2019-03-17T04:18:38.071Z,1.60
2019-03-17T04:19:38.030Z,1.70
2019-03-17T04:20:38.039Z,1.70
2019-03-17T04:21:38.014Z,2.10
2019-03-17T04:22:38.034Z,1.70
2019-03-17T04:23:37.986Z,1.70
2019-03-17T04:24:37.978Z,1.70
2019-03-17T04:25:37.994Z,1.80
2019-03-17T04:26:37.959Z,1.80
2019-03-17T04:27:37.971Z,1.90
2019-03-17T04:28:37.934Z,1.90
2019-03-17T04:29:37.921Z,1.70
2019-03-17T04:30:38.074Z,1.60
2019-03-17T04:31:37.925Z,1.80
2019-03-17T04:32:37.891Z,1.80
2019-03-17T04:33:37.896Z,2.00
2019-03-17T04:34:37.862Z,1.70
2019-03-17T04:35:37.850Z,2.10
2019-03-17T04:36:40.431Z,1.80
2019-03-17T04:37:37.830Z,1.80
2019-03-17T04:38:37.848Z,1.80
2019-03-17T04:39:37.806Z,1.50
2019-03-17T04:40:37.793Z,1.80
2019-03-17T04:41:37.783Z,1.60
2019-03-17T04:42:37.790Z,1.80
2019-03-17T04:43:37.766Z,1.70
2019-03-17T04:44:37.751Z,1.60
2019-03-17T04:45:37.739Z,1.80
2019-03-17T04:46:37.743Z,1.90
2019-03-17T04:47:37.718Z,1.80
2019-03-17T04:48:37.713Z,1.60
2019-03-17T04:49:37.692Z,1.50
2019-03-17T04:50:37.707Z,2.00
2019-03-17T04:51:37.671Z,1.80
2019-03-17T04:52:37.657Z,2.10
2019-03-17T04:53:37.647Z,2.00
2019-03-17T04:54:37.659Z,1.90
2019-03-17T04:55:37.626Z,2.20
2019-03-17T04:56:37.614Z,1.80
2019-03-17T04:57:37.603Z,1.80
2019-03-17T04:58:37.591Z,2.00
2019-03-17T04:59:37.610Z,1.90
2019-03-17T05:00:37.569Z,1.90
2019-03-17T05:01:37.584Z,1.80
2019-03-17T05:02:37.545Z,1.80
2019-03-17T05:03:37.533Z,1.80
2019-03-17T05:04:37.552Z,1.90
2019-03-17T05:05:37.513Z,1.90
2019-03-17T05:06:37.519Z,2.00
2019-03-17T05:07:37.489Z,1.90
2019-03-17T05:08:37.503Z,2.00
2019-03-17T05:09:37.467Z,1.90
2019-03-17T05:10:37.484Z,2.00
2019-03-17T05:11:37.444Z,1.80
2019-03-17T05:12:37.465Z,1.90
2019-03-17T05:13:37.423Z,2.10
2019-03-17T05:14:37.412Z,2.00
2019-03-17T05:15:37.425Z,1.90
2019-03-17T05:16:37.390Z,2.00
2019-03-17T05:17:37.380Z,1.80
2019-03-17T05:18:37.397Z,2.10
2019-03-17T05:19:37.372Z,2.10
2019-03-17T05:20:37.348Z,1.80
2019-03-17T05:21:37.335Z,2.00
2019-03-17T05:22:37.321Z,1.90
2019-03-17T05:23:37.333Z,1.70
2019-03-17T05:24:37.298Z,1.90
2019-03-17T05:25:37.288Z,2.10
2019-03-17T05:26:37.278Z,2.00
2019-03-17T05:27:37.279Z,1.80
2019-03-17T05:28:37.254Z,1.90
2019-03-17T05:29:37.244Z,2.00
2019-03-17T05:30:37.254Z,2.00
2019-03-17T05:31:37.220Z,2.20
2019-03-17T05:32:37.209Z,2.20
2019-03-17T05:33:37.201Z,2.00
2019-03-17T05:34:37.187Z,2.10
2019-03-17T05:35:37.200Z,2.20
2019-03-17T05:36:37.165Z,1.90
2019-03-17T05:37:37.156Z,2.00
2019-03-17T05:38:37.145Z,2.20
2019-03-17T05:39:37.131Z,2.10
2019-03-17T05:40:37.141Z,2.10
2019-03-17T05:41:37.107Z,2.20
2019-03-17T05:42:37.097Z,2.20
2019-03-17T05:43:37.086Z,2.10
2019-03-17T05:44:37.077Z,2.00
2019-03-17T05:45:37.100Z,2.30
2019-03-17T05:46:37.053Z,2.00
2019-03-17T05:47:37.040Z,2.10
2019-03-17T05:48:37.031Z,2.20
2019-03-17T05:49:37.018Z,2.20
2019-03-17T05:50:37.029Z,2.50
2019-03-17T05:51:36.995Z,2.20
2019-03-17T05:52:37.021Z,2.00
2019-03-17T05:53:36.974Z,2.50
2019-03-17T05:54:36.962Z,2.40
2019-03-17T05:55:36.974Z,2.10
2019-03-17T05:56:36.968Z,1.90
2019-03-17T05:57:36.944Z,2.30
2019-03-17T05:58:36.923Z,2.20
2019-03-17T05:59:36.907Z,2.40
2019-03-17T06:00:36.922Z,2.40
2019-03-17T06:01:36.899Z,2.40
2019-03-17T06:02:36.872Z,2.50
2019-03-17T06:03:36.861Z,2.40
2019-03-17T06:04:36.850Z,2.30
2019-03-17T06:05:36.862Z,2.10
2019-03-17T06:06:36.827Z,2.20
2019-03-17T06:07:36.816Z,2.30
2019-03-17T06:08:36.805Z,2.30
2019-03-17T06:09:36.797Z,2.60
2019-03-17T06:10:36.817Z,2.30
2019-03-17T06:11:36.776Z,2.40
2019-03-17T06:12:36.760Z,2.60
2019-03-17T06:13:36.749Z,2.30
2019-03-17T06:14:36.761Z,2.70
2019-03-17T06:15:36.741Z,2.60
2019-03-17T06:16:36.743Z,2.50
2019-03-17T06:17:36.705Z,2.60
2019-03-17T06:18:36.693Z,2.40
2019-03-17T06:19:36.703Z,2.40
2019-03-17T06:20:36.670Z,2.30
2019-03-17T06:21:36.659Z,2.60
2019-03-17T06:22:36.648Z,2.60
2019-03-17T06:23:36.634Z,2.50
2019-03-17T06:24:36.654Z,2.60
2019-03-17T06:25:36.615Z,2.50
2019-03-17T06:26:36.601Z,2.70
2019-03-17T06:27:36.594Z,2.40
2019-03-17T06:28:36.584Z,2.60
2019-03-17T06:29:36.602Z,2.40
2019-03-17T06:30:36.555Z,2.60
2019-03-17T06:31:36.547Z,2.70
2019-03-17T06:32:36.555Z,2.60
2019-03-17T06:33:36.524Z,2.60
2019-03-17T06:34:36.513Z,2.90
2019-03-17T06:35:36.499Z,2.80
2019-03-17T06:36:36.493Z,2.60
2019-03-17T06:37:36.495Z,2.60
2019-03-17T06:38:36.468Z,2.60
2019-03-17T06:39:36.455Z,2.50
2019-03-17T06:40:36.470Z,2.70
2019-03-17T06:41:36.431Z,2.50
2019-03-17T06:42:36.445Z,2.50
2019-03-17T06:43:36.429Z,2.70
2019-03-17T06:44:36.398Z,2.50
2019-03-17T06:45:36.387Z,2.80
2019-03-17T06:46:36.401Z,2.50
2019-03-17T06:47:36.389Z,2.70
2019-03-17T06:48:36.354Z,2.70
2019-03-17T06:49:36.365Z,2.70
2019-03-17T06:50:36.335Z,2.80
2019-03-17T06:51:36.321Z,2.80
2019-03-17T06:52:36.309Z,2.40
2019-03-17T06:53:36.296Z,2.60
2019-03-17T06:54:36.308Z,2.70
2019-03-17T06:55:36.274Z,2.70
2019-03-17T06:56:36.291Z,2.80
2019-03-17T06:57:36.251Z,2.90
2019-03-17T06:58:36.263Z,2.70
2019-03-17T06:59:36.230Z,3.10
2019-03-17T07:00:36.249Z,2.90
2019-03-17T07:01:36.205Z,2.40
2019-03-17T07:02:36.196Z,2.80
2019-03-17T07:03:36.185Z,2.70
2019-03-17T07:04:36.173Z,2.90
2019-03-17T07:05:36.185Z,2.60
2019-03-17T07:06:36.150Z,2.30
2019-03-17T07:07:43.762Z,2.90
2019-03-17T07:08:37.148Z,2.60
2019-03-17T07:09:36.118Z,2.50
2019-03-17T07:10:36.119Z,2.40
2019-03-17T07:11:36.120Z,2.30
2019-03-17T07:12:36.100Z,2.60
2019-03-17T07:13:36.069Z,2.70
2019-03-17T07:14:36.087Z,2.80
2019-03-17T07:15:36.047Z,2.50
2019-03-17T07:16:36.039Z,3.00
2019-03-17T07:17:36.025Z,2.70
2019-03-17T07:18:36.017Z,2.80
2019-03-17T07:19:36.029Z,2.80
2019-03-17T07:20:35.990Z,2.60
2019-03-17T07:21:35.980Z,2.60
2019-03-17T07:22:35.971Z,3.00
2019-03-17T07:23:35.957Z,2.70
2019-03-17T07:24:35.987Z,2.60
2019-03-17T07:25:35.934Z,2.80
2019-03-17T07:26:35.924Z,2.70
2019-03-17T07:27:35.918Z,2.70
2019-03-17T07:28:35.901Z,2.60
2019-03-17T07:29:35.912Z,2.60
2019-03-17T07:30:35.879Z,3.10
2019-03-17T07:31:35.891Z,2.80
2019-03-17T07:32:35.879Z,2.80
2019-03-17T07:33:35.845Z,2.70
2019-03-17T07:34:35.834Z,2.70
2019-03-17T07:35:35.860Z,2.90
2019-03-17T07:36:35.818Z,2.60
2019-03-17T07:37:35.800Z,3.00
2019-03-17T07:38:35.789Z,3.00
2019-03-17T07:39:35.777Z,2.60
2019-03-17T07:40:35.797Z,3.10
2019-03-17T07:41:35.757Z,2.40
2019-03-17T07:42:35.745Z,2.90
2019-03-17T07:43:35.760Z,2.90
2019-03-17T07:44:35.723Z,2.50
2019-03-17T07:45:35.710Z,2.60
2019-03-17T07:46:35.701Z,3.10
2019-03-17T07:47:35.859Z,2.70
2019-03-17T07:48:35.711Z,2.90
2019-03-17T07:49:35.665Z,2.80
2019-03-17T07:50:35.654Z,3.00
2019-03-17T07:51:35.642Z,2.70
2019-03-17T07:52:35.632Z,2.80
2019-03-17T07:53:35.645Z,2.60
2019-03-17T07:54:35.607Z,3.00
2019-03-17T07:55:35.598Z,3.40
2019-03-17T07:56:35.587Z,2.90
2019-03-17T07:57:35.603Z,2.80
2019-03-17T07:58:35.564Z,2.80
2019-03-17T07:59:35.561Z,2.90
2019-03-17T08:00:35.559Z,2.90
2019-03-17T08:01:35.552Z,3.20
2019-03-17T08:02:35.520Z,3.10
2019-03-17T08:03:35.507Z,2.70
2019-03-17T08:04:42.397Z,3.40
2019-03-17T08:05:36.485Z,2.90
2019-03-17T08:06:35.496Z,3.30
2019-03-17T08:07:35.533Z,2.90
2019-03-17T08:08:35.476Z,3.00
2019-03-17T08:09:35.467Z,3.00
2019-03-17T08:10:35.428Z,3.10
2019-03-17T08:11:35.416Z,3.30
2019-03-17T08:12:35.407Z,3.00
2019-03-17T08:13:35.424Z,3.00
2019-03-17T08:14:35.386Z,3.20
2019-03-17T08:15:35.375Z,3.30
2019-03-17T08:16:35.386Z,3.20
2019-03-17T08:17:35.350Z,3.30
2019-03-17T08:18:35.338Z,3.30
2019-03-17T08:19:35.330Z,3.20
2019-03-17T08:20:35.317Z,3.40
2019-03-17T08:21:35.338Z,2.90
2019-03-17T08:22:35.297Z,3.20
2019-03-17T08:23:35.282Z,3.00
2019-03-17T08:24:35.276Z,3.60
2019-03-17T08:25:35.288Z,3.20
2019-03-17T08:26:35.277Z,3.00
2019-03-17T08:27:35.240Z,3.20
2019-03-17T08:28:35.227Z,3.10
2019-03-17T08:29:35.219Z,3.00
2019-03-17T08:30:35.206Z,2.80
2019-03-17T08:31:35.213Z,3.00
2019-03-17T08:32:35.183Z,3.40
2019-03-17T08:33:35.193Z,3.20
2019-03-17T08:34:35.159Z,3.10
2019-03-17T08:35:35.162Z,3.00
2019-03-17T08:36:35.158Z,2.80
2019-03-17T08:37:35.124Z,2.90
2019-03-17T08:38:35.112Z,3.10
2019-03-17T08:39:35.107Z,3.30
2019-03-17T08:40:35.091Z,2.90
2019-03-17T08:41:37.544Z,3.00
2019-03-17T08:42:35.067Z,3.10
2019-03-17T08:43:35.059Z,2.80
2019-03-17T08:44:35.045Z,2.90
2019-03-17T08:45:35.034Z,3.00
2019-03-17T08:46:35.047Z,3.10
2019-03-17T08:47:35.011Z,2.70
2019-03-17T08:48:34.998Z,3.10
2019-03-17T08:49:34.991Z,2.90
2019-03-17T08:50:35.000Z,3.10
2019-03-17T08:51:35.144Z,2.80
2019-03-17T08:52:34.956Z,3.00
2019-03-17T08:53:34.961Z,3.40
2019-03-17T08:54:34.933Z,3.20
2019-03-17T08:55:34.920Z,2.90
2019-03-17T08:56:34.910Z,3.10
2019-03-17T08:57:34.898Z,3.30
2019-03-17T08:58:34.910Z,3.00
2019-03-17T08:59:34.878Z,3.30
2019-03-17T09:00:34.865Z,3.10
2019-03-17T09:01:34.881Z,2.90
2019-03-17T09:02:34.842Z,3.10
2019-03-17T09:03:34.854Z,3.20
2019-03-17T09:04:34.821Z,3.50
2019-03-17T09:05:34.809Z,3.00
2019-03-17T09:06:34.819Z,3.00
2019-03-17T09:07:34.787Z,2.90
2019-03-17T09:08:35.649Z,2.90
2019-03-17T09:09:34.762Z,2.90
2019-03-17T09:10:34.753Z,3.30
2019-03-17T09:11:34.771Z,2.90
2019-03-17T09:12:34.729Z,2.80
2019-03-17T09:13:34.735Z,2.90
2019-03-17T09:14:34.706Z,2.90
2019-03-17T09:15:34.695Z,3.40
2019-03-17T09:16:34.686Z,2.90
2019-03-17T09:17:34.673Z,2.90
2019-03-17T09:18:34.685Z,3.40
2019-03-17T09:19:34.652Z,3.40
2019-03-17T09:20:34.641Z,3.70
2019-03-17T09:21:34.651Z,3.10
2019-03-17T09:22:34.619Z,3.30
2019-03-17T09:23:34.605Z,3.20
2019-03-17T09:24:34.621Z,3.20
2019-03-17T09:25:34.582Z,3.30
2019-03-17T09:26:34.572Z,3.40
2019-03-17T09:27:34.560Z,3.50
2019-03-17T09:28:34.573Z,3.40
2019-03-17T09:29:34.564Z,3.40
2019-03-17T09:30:34.527Z,3.40
2019-03-17T09:31:34.519Z,3.40
2019-03-17T09:32:34.529Z,3.60
2019-03-17T09:33:34.491Z,3.70
2019-03-17T09:34:34.511Z,3.50
2019-03-17T09:35:34.471Z,3.60
2019-03-17T09:36:34.459Z,3.80
2019-03-17T09:37:34.447Z,3.70
2019-03-17T09:38:46.461Z,3.80
2019-03-17T09:39:35.448Z,3.70
2019-03-17T09:40:34.437Z,3.70
2019-03-17T09:41:34.407Z,3.80
2019-03-17T09:42:34.397Z,3.40
2019-03-17T09:43:34.382Z,3.70
2019-03-17T09:44:34.394Z,3.80
2019-03-17T09:45:34.386Z,3.60
2019-03-17T09:46:34.346Z,3.60
2019-03-17T09:47:34.372Z,3.70
2019-03-17T09:48:34.323Z,3.70
2019-03-17T09:49:34.311Z,3.30
2019-03-17T09:50:34.315Z,3.90
2019-03-17T09:51:34.289Z,3.90
2019-03-17T09:52:34.300Z,4.00
2019-03-17T09:53:34.269Z,4.00
2019-03-17T09:54:34.260Z,3.70
2019-03-17T09:55:34.266Z,3.20
2019-03-17T09:56:34.234Z,3.60
2019-03-17T09:57:34.221Z,3.50
2019-03-17T09:58:34.213Z,3.20
2019-03-17T09:59:34.206Z,3.90
2019-03-17T10:00:34.216Z,3.80
2019-03-17T10:01:34.177Z,3.40
2019-03-17T10:02:34.165Z,3.40
2019-03-17T10:03:34.155Z,3.60
2019-03-17T10:04:34.143Z,3.70
2019-03-17T10:05:34.154Z,3.80
2019-03-17T10:06:34.120Z,4.00
2019-03-17T10:07:34.110Z,3.90
2019-03-17T10:08:34.100Z,3.30
2019-03-17T10:09:34.087Z,4.00
2019-03-17T10:10:34.097Z,3.40
2019-03-17T10:11:34.067Z,3.90
2019-03-17T10:12:34.057Z,4.40
2019-03-17T10:13:34.051Z,3.90
2019-03-17T10:14:34.043Z,3.60
2019-03-17T10:15:34.044Z,3.90
2019-03-17T10:16:34.008Z,3.50
2019-03-17T10:17:34.025Z,3.70
2019-03-17T10:18:33.985Z,3.60
2019-03-17T10:19:33.997Z,3.90
2019-03-17T10:20:33.963Z,3.80
2019-03-17T10:21:33.952Z,3.60
2019-03-17T10:22:33.973Z,3.80
2019-03-17T10:23:33.933Z,3.90
2019-03-17T10:24:33.918Z,4.20
2019-03-17T10:25:33.909Z,4.00
2019-03-17T10:26:33.896Z,3.40
2019-03-17T10:27:33.907Z,3.80
2019-03-17T10:28:35.103Z,3.60
2019-03-17T10:29:33.863Z,4.00
2019-03-17T10:30:33.852Z,3.80
2019-03-17T10:31:33.838Z,3.60
2019-03-17T10:32:33.843Z,4.00
2019-03-17T10:33:33.816Z,3.90
2019-03-17T10:34:33.831Z,3.70
2019-03-17T10:35:33.797Z,3.80
2019-03-17T10:36:33.784Z,3.70
2019-03-17T10:37:33.771Z,3.90
2019-03-17T10:38:33.785Z,4.00
2019-03-17T10:39:33.748Z,3.60
2019-03-17T10:40:33.737Z,3.90
2019-03-17T10:41:33.727Z,4.40
2019-03-17T10:42:34.318Z,3.20
2019-03-17T10:43:33.734Z,1.60
2019-03-17T10:44:33.692Z,1.50
2019-03-17T10:45:33.681Z,1.40
2019-03-17T10:46:33.672Z,1.80
2019-03-17T10:47:33.659Z,1.50
2019-03-17T10:48:33.672Z,1.20
2019-03-17T10:49:33.652Z,1.00
2019-03-17T10:50:33.646Z,0.80
2019-03-17T10:51:33.617Z,0.70
2019-03-17T10:52:33.601Z,0.60
2019-03-17T10:53:33.590Z,0.70
2019-03-17T10:54:33.583Z,0.60
2019-03-17T10:55:33.593Z,0.50
2019-03-17T10:56:33.557Z,0.70
2019-03-17T10:57:33.545Z,0.50
2019-03-17T10:58:33.536Z,0.50
2019-03-17T10:59:33.524Z,0.50
2019-03-17T11:00:33.533Z,0.60
2019-03-17T11:01:33.504Z,0.50
2019-03-17T11:02:33.511Z,0.70
2019-03-17T11:03:33.483Z,0.70
2019-03-17T11:04:33.470Z,0.70
2019-03-17T11:05:33.456Z,0.80
2019-03-17T11:06:33.452Z,0.70
2019-03-17T11:07:33.456Z,0.60
2019-03-17T11:08:33.425Z,0.70
2019-03-17T11:09:33.411Z,0.70
2019-03-17T11:10:33.401Z,0.50
2019-03-17T11:11:33.422Z,0.60
2019-03-17T11:12:33.377Z,0.60
2019-03-17T11:13:33.365Z,0.70
2019-03-17T11:14:33.469Z,0.80
2019-03-17T11:15:33.345Z,0.60
2019-03-17T11:16:33.332Z,0.80
2019-03-17T11:17:33.326Z,0.90
2019-03-17T11:18:33.329Z,1.00
2019-03-17T11:19:33.348Z,0.90
2019-03-17T11:20:33.286Z,0.90
2019-03-17T11:21:33.285Z,0.70
2019-03-17T11:22:33.271Z,0.70
2019-03-17T11:23:33.252Z,0.80
2019-03-17T11:24:33.270Z,0.80
2019-03-17T11:25:33.230Z,0.70
2019-03-17T11:26:33.218Z,0.70
2019-03-17T11:27:33.207Z,0.80
2019-03-17T11:28:33.240Z,0.50
2019-03-17T11:29:33.188Z,0.60
2019-03-17T11:30:33.172Z,0.70
2019-03-17T11:31:33.161Z,0.70
2019-03-17T11:32:33.151Z,1.00
2019-03-17T11:33:33.173Z,1.60
2019-03-17T11:34:33.129Z,1.40
2019-03-17T11:35:33.117Z,0.90
2019-03-17T11:36:33.105Z,0.90
2019-03-17T11:37:33.094Z,0.80
2019-03-17T11:38:33.109Z,0.90
2019-03-17T11:39:37.598Z,1.00
2019-03-17T11:40:34.060Z,0.80
2019-03-17T11:41:33.116Z,0.80
2019-03-17T11:42:33.040Z,1.10
2019-03-17T11:43:33.049Z,0.80
2019-03-17T11:44:33.015Z,0.90
2019-03-17T11:45:33.004Z,1.10
2019-03-17T11:46:32.995Z,0.90
2019-03-17T11:47:32.980Z,1.10
2019-03-17T11:48:33.032Z,0.90
2019-03-17T11:49:32.972Z,1.00
2019-03-17T11:50:33.052Z,1.00
2019-03-17T11:51:32.936Z,1.00
2019-03-17T11:52:33.082Z,1.20
2019-03-17T11:53:32.952Z,1.10
2019-03-17T11:54:32.903Z,1.10
2019-03-17T11:55:32.901Z,1.20
2019-03-17T11:56:32.889Z,0.80
2019-03-17T11:57:32.869Z,1.00
2019-03-17T11:58:32.929Z,1.10
2019-03-17T11:59:32.847Z,3.40
2019-03-17T12:00:32.858Z,3.20
2019-03-17T12:01:32.825Z,2.90
2019-03-17T12:02:32.813Z,2.40
2019-03-17T12:03:32.801Z,1.60
2019-03-17T12:04:32.826Z,1.10
2019-03-17T12:05:32.813Z,1.40
2019-03-17T12:06:32.768Z,1.20
2019-03-17T12:07:32.757Z,1.30
2019-03-17T12:08:32.749Z,1.10
2019-03-17T12:09:32.733Z,1.10
2019-03-17T12:10:32.745Z,1.60
2019-03-17T12:11:32.728Z,1.70
2019-03-17T12:12:32.699Z,1.30
2019-03-17T12:13:32.689Z,1.00
2019-03-17T12:14:32.707Z,1.10
2019-03-17T12:15:32.688Z,1.10
2019-03-17T12:16:32.654Z,1.50
2019-03-17T12:17:32.646Z,2.80
2019-03-17T12:18:32.630Z,2.00
2019-03-17T12:19:32.958Z,1.60
2019-03-17T12:20:32.633Z,1.50
2019-03-17T12:21:32.598Z,1.50
2019-03-17T12:22:32.612Z,1.50
2019-03-17T12:23:32.574Z,1.70
2019-03-17T12:24:32.569Z,1.50
2019-03-17T12:25:32.570Z,1.50
2019-03-17T12:26:32.542Z,1.40
2019-03-17T12:27:32.535Z,1.30
2019-03-17T12:28:32.549Z,1.60
2019-03-17T12:29:32.507Z,1.40
2019-03-17T12:30:32.518Z,1.40
2019-03-17T12:31:32.484Z,1.60
2019-03-17T12:32:32.473Z,1.70
2019-03-17T12:33:32.462Z,1.50
2019-03-17T12:34:32.453Z,1.80
2019-03-17T12:35:32.463Z,2.10
2019-03-17T12:36:32.429Z,1.80
2019-03-17T12:37:32.416Z,1.70
2019-03-17T12:38:32.456Z,2.10
2019-03-17T12:39:32.398Z,1.90
2019-03-17T12:40:32.383Z,1.70
2019-03-17T12:41:32.370Z,6.80
2019-03-17T12:42:32.363Z,10.60
2019-03-17T12:43:32.371Z,7.40
2019-03-17T12:44:32.338Z,5.30
2019-03-17T12:45:32.325Z,10.00
2019-03-17T12:46:32.315Z,9.20
2019-03-17T12:47:32.306Z,5.20
2019-03-17T12:48:32.314Z,7.90
2019-03-17T12:49:32.282Z,2.90
2019-03-17T12:50:32.272Z,6.10
2019-03-17T12:51:32.282Z,2.90
2019-03-17T12:52:32.252Z,3.10
2019-03-17T12:53:32.235Z,3.10
2019-03-17T12:54:32.229Z,1.50
2019-03-17T12:55:32.212Z,2.10
2019-03-17T12:56:32.229Z,1.90
2019-03-17T12:57:32.191Z,2.20
2019-03-17T12:58:32.179Z,1.90
2019-03-17T12:59:32.169Z,1.80
2019-03-17T13:00:32.165Z,1.90
2019-03-17T13:01:32.169Z,1.90
2019-03-17T13:02:32.138Z,1.40
2019-03-17T13:03:32.139Z,1.70
2019-03-17T13:04:32.113Z,1.90
2019-03-17T13:05:32.100Z,2.10
2019-03-17T13:06:32.089Z,1.80
2019-03-17T13:07:32.100Z,1.90
2019-03-17T13:08:32.094Z,1.90
2019-03-17T13:09:32.063Z,1.70
2019-03-17T13:10:32.044Z,1.40
2019-03-17T13:11:32.033Z,1.80
2019-03-17T13:12:32.020Z,1.60
2019-03-17T13:13:32.032Z,1.70
2019-03-17T13:14:32.000Z,1.50
2019-03-17T13:15:31.986Z,1.40
2019-03-17T13:16:31.978Z,1.70
2019-03-17T13:17:31.981Z,1.70
2019-03-17T13:18:31.953Z,1.70